createdAt,value
2017-11-08T00:00:05.039Z,76.87
2017-11-08T00:02:34.732Z,77.77
2017-11-08T00:05:04.193Z,79.37
2017-11-08T00:07:33.425Z,76.60
2017-11-08T00:10:02.832Z,75.47
2017-11-08T00:12:33.183Z,81.50
2017-11-08T00:15:02.553Z,79.43
2017-11-08T00:17:32.154Z,85.10
2017-11-08T00:20:02.425Z,79.10
2017-11-08T00:22:31.815Z,74.30
2017-11-08T00:25:01.009Z,81.13
2017-11-08T00:27:30.402Z,71.87
2017-11-08T00:29:59.826Z,77.83
2017-11-08T00:32:29.068Z,81.57
2017-11-08T00:34:58.916Z,77.23
2017-11-08T00:37:28.296Z,72.27
2017-11-08T00:39:57.702Z,81.33
2017-11-08T00:42:27.567Z,77.97
2017-11-08T00:44:57.082Z,76.13
2017-11-08T00:47:26.738Z,75.30
2017-11-08T00:49:56.850Z,77.93
2017-11-08T00:52:26.284Z,75.83
2017-11-08T00:54:55.701Z,75.87
2017-11-08T00:57:31.824Z,79.60
2017-11-08T01:00:01.257Z,76.37
2017-11-08T01:02:30.441Z,72.10
2017-11-08T01:05:00.153Z,69.50
2017-11-08T01:07:29.540Z,83.33
2017-11-08T01:09:58.921Z,74.77
2017-11-08T01:12:29.071Z,66.07
2017-11-08T01:14:58.530Z,71.47
2017-11-08T01:17:27.936Z,76.20
2017-11-08T01:19:58.231Z,79.83
2017-11-08T01:22:27.619Z,66.53
2017-11-08T01:24:56.871Z,79.27
2017-11-08T01:27:26.699Z,71.30
2017-11-08T01:29:56.119Z,71.23
2017-11-08T01:32:25.515Z,73.53
2017-11-08T01:34:56.028Z,68.90
2017-11-08T01:40:23.370Z,72.03
2017-11-08T01:42:52.759Z,71.27
2017-11-08T01:45:22.127Z,66.10
2017-11-08T01:47:53.264Z,66.57
2017-11-08T01:50:27.732Z,72.37
2017-11-08T01:52:57.540Z,68.70
2017-11-08T01:55:26.237Z,73.97
2017-11-08T01:57:55.693Z,73.00
2017-11-08T02:00:24.639Z,73.53
2017-11-08T02:02:54.640Z,69.13
2017-11-08T02:05:25.554Z,65.03
2017-11-08T02:07:55.039Z,69.43
2017-11-08T02:10:25.652Z,74.37
2017-11-08T02:12:55.796Z,72.70
2017-11-08T02:15:26.022Z,76.90
2017-11-08T02:17:58.301Z,73.83
2017-11-08T02:20:29.044Z,75.87
2017-11-08T02:22:57.557Z,75.60
2017-11-08T02:25:26.237Z,76.50
2017-11-08T02:27:57.351Z,74.10
2017-11-08T02:30:26.108Z,82.70
2017-11-08T02:32:56.431Z,82.13
2017-11-08T02:35:25.472Z,79.23
2017-11-08T02:37:55.773Z,75.73
2017-11-08T02:40:25.198Z,72.33
2017-11-08T02:42:56.456Z,87.93
2017-11-08T02:45:34.918Z,84.70
2017-11-08T02:48:04.374Z,77.80
2017-11-08T02:50:33.766Z,75.37
2017-11-08T02:53:03.759Z,83.33
2017-11-08T02:55:33.295Z,81.20
2017-11-08T02:58:03.486Z,76.73
2017-11-08T03:00:32.918Z,81.87
2017-11-08T03:03:03.569Z,75.27
2017-11-08T03:05:32.957Z,77.33
2017-11-08T03:08:03.558Z,82.00
2017-11-08T03:10:32.958Z,85.63
2017-11-08T03:13:04.074Z,80.30
2017-11-08T03:15:33.303Z,81.83
2017-11-08T03:18:03.458Z,83.80
2017-11-08T03:20:32.845Z,79.30
2017-11-08T03:23:02.356Z,81.57
2017-11-08T03:25:31.857Z,76.73
2017-11-08T03:28:02.383Z,79.97
2017-11-08T03:30:31.798Z,72.73
2017-11-08T03:33:00.481Z,73.53
2017-11-08T03:35:29.718Z,75.43
2017-11-08T03:37:59.149Z,77.57
2017-11-08T03:40:28.513Z,66.77
2017-11-08T03:43:00.745Z,70.20
2017-11-08T03:45:30.155Z,66.33
2017-11-08T03:48:00.759Z,71.00
2017-11-08T03:50:30.439Z,77.80
2017-11-08T03:53:00.600Z,70.03
2017-11-08T03:55:29.859Z,73.00
2017-11-08T03:57:59.317Z,70.33
2017-11-08T04:00:29.125Z,80.33
2017-11-08T04:03:01.155Z,71.63
2017-11-08T04:05:31.562Z,75.73
2017-11-08T04:08:01.716Z,81.83
2017-11-08T04:10:33.478Z,75.83
2017-11-08T04:13:04.033Z,76.97
2017-11-08T04:15:36.131Z,83.60
2017-11-08T04:18:05.342Z,80.57
2017-11-08T04:20:34.801Z,81.17
2017-11-08T04:23:04.779Z,87.87
2017-11-08T04:25:34.216Z,88.07
2017-11-08T04:28:03.466Z,84.93
2017-11-08T04:30:33.647Z,87.47
2017-11-08T04:33:03.065Z,82.53
2017-11-08T04:35:32.451Z,88.53
2017-11-08T04:38:02.313Z,91.87
2017-11-08T04:40:31.812Z,87.03
2017-11-08T04:43:00.836Z,80.70
2017-11-08T04:45:31.914Z,78.87
2017-11-08T04:48:01.541Z,83.13
2017-11-08T04:50:30.920Z,85.43
2017-11-08T04:53:00.506Z,72.90
2017-11-08T04:55:29.699Z,75.53
2017-11-08T04:58:00.102Z,74.13
2017-11-08T05:00:29.290Z,85.60
2017-11-08T05:02:58.285Z,82.13
2017-11-08T05:05:28.930Z,74.87
2017-11-08T05:07:58.306Z,87.80
2017-11-08T05:10:27.676Z,83.77
2017-11-08T05:12:58.313Z,85.13
2017-11-08T05:15:27.706Z,84.27
2017-11-08T05:17:57.085Z,86.93
2017-11-08T05:20:26.816Z,85.87
2017-11-08T05:22:56.290Z,85.30
2017-11-08T05:25:25.673Z,86.00
2017-11-08T05:27:55.475Z,91.30
2017-11-08T05:30:24.859Z,90.07
2017-11-08T05:32:55.413Z,83.57
2017-11-08T05:35:25.650Z,86.07
2017-11-08T05:37:56.208Z,90.47
2017-11-08T05:40:25.926Z,69.87
2017-11-08T05:42:57.301Z,80.23
2017-11-08T05:45:27.734Z,78.03
2017-11-08T05:47:58.480Z,81.67
2017-11-08T05:50:27.922Z,76.70
2017-11-08T05:52:58.760Z,86.87
2017-11-08T05:55:29.385Z,82.33
2017-11-08T05:58:01.452Z,86.90
2017-11-08T06:00:30.920Z,88.17
2017-11-08T06:03:00.329Z,87.63
2017-11-08T06:05:31.440Z,83.37
2017-11-08T06:08:01.581Z,86.87
2017-11-08T06:10:31.667Z,82.00
2017-11-08T06:13:01.481Z,82.57
2017-11-08T06:15:32.762Z,81.90
2017-11-08T06:18:02.563Z,82.80
2017-11-08T06:20:32.923Z,86.13
2017-11-08T06:23:03.412Z,88.20
2017-11-08T06:25:35.236Z,81.93
2017-11-08T06:28:05.535Z,86.40
2017-11-08T06:30:35.456Z,71.03
2017-11-08T06:33:04.876Z,85.20
2017-11-08T06:35:34.280Z,79.23
2017-11-08T06:38:04.066Z,76.67
2017-11-08T06:40:33.447Z,85.60
2017-11-08T06:43:05.773Z,74.83
2017-11-08T06:45:38.752Z,90.83
2017-11-08T06:48:08.431Z,85.47
2017-11-08T06:50:38.203Z,84.80
2017-11-08T06:53:07.599Z,90.90
2017-11-08T06:55:37.356Z,96.53
2017-11-08T06:58:06.734Z,96.50
2017-11-08T07:00:36.120Z,101.37
2017-11-08T07:03:06.320Z,87.93
2017-11-08T07:05:35.728Z,107.00
2017-11-08T07:08:05.118Z,105.13
2017-11-08T07:10:36.516Z,108.53
2017-11-08T07:13:06.015Z,104.27
2017-11-08T07:15:35.431Z,100.20
2017-11-08T07:18:05.379Z,108.27
2017-11-08T07:20:35.280Z,103.90
2017-11-08T07:23:06.050Z,102.03
2017-11-08T07:25:35.447Z,100.37
2017-11-08T07:28:04.855Z,102.87
2017-11-08T07:30:35.436Z,103.10
2017-11-08T07:33:05.220Z,100.20
2017-11-08T07:35:35.514Z,103.80
2017-11-08T07:38:04.739Z,104.87
2017-11-08T07:40:34.125Z,103.23
2017-11-08T07:43:04.425Z,116.30
2017-11-08T07:45:34.622Z,110.13
2017-11-08T07:48:04.421Z,123.73
2017-11-08T07:50:34.478Z,119.13
2017-11-08T07:53:05.126Z,119.90
2017-11-08T07:55:40.028Z,123.57
2017-11-08T07:58:10.648Z,123.37
2017-11-08T08:00:40.756Z,120.97
2017-11-08T08:03:10.385Z,131.40
2017-11-08T08:05:40.074Z,114.30
2017-11-08T08:08:09.464Z,121.13
2017-11-08T08:10:40.130Z,120.97
2017-11-08T08:13:10.358Z,125.20
2017-11-08T08:15:42.047Z,128.30
2017-11-08T08:18:11.489Z,114.10
2017-11-08T08:20:41.220Z,118.70
2017-11-08T08:23:11.189Z,125.37
2017-11-08T08:25:51.555Z,128.27
2017-11-08T08:28:20.931Z,110.37
2017-11-08T08:30:51.422Z,115.00
2017-11-08T08:33:20.687Z,105.73
2017-11-08T08:35:50.478Z,120.47
2017-11-08T08:38:20.256Z,114.20
2017-11-08T08:40:49.800Z,113.90
2017-11-08T08:43:19.486Z,110.80
2017-11-08T08:45:49.456Z,107.33
2017-11-08T08:48:19.187Z,105.00
2017-11-08T08:50:50.217Z,105.73
2017-11-08T08:53:19.645Z,102.10
2017-11-08T08:55:49.073Z,106.10
2017-11-08T08:58:18.716Z,109.10
2017-11-08T09:00:48.104Z,106.37
2017-11-08T09:03:22.245Z,91.30
2017-11-08T09:05:56.056Z,109.37
2017-11-08T09:08:27.598Z,100.87
2017-11-08T09:10:57.063Z,100.27
2017-11-08T09:13:26.437Z,99.23
2017-11-08T09:15:56.399Z,104.07
2017-11-08T09:18:26.814Z,102.97
2017-11-08T09:20:56.181Z,98.83
2017-11-08T09:23:25.561Z,103.27
2017-11-08T09:25:55.629Z,102.37
2017-11-08T09:28:25.886Z,103.23
2017-11-08T09:30:55.068Z,100.40
2017-11-08T09:33:25.656Z,104.47
2017-11-08T09:35:55.644Z,105.97
2017-11-08T09:38:24.693Z,104.53
2017-11-08T09:40:54.051Z,101.30
2017-11-08T09:43:23.186Z,106.83
2017-11-08T09:45:52.743Z,103.47
2017-11-08T09:48:22.730Z,92.03
2017-11-08T09:50:52.151Z,101.77
2017-11-08T09:53:21.531Z,94.67
2017-11-08T09:55:51.618Z,96.17
2017-11-08T09:58:21.000Z,89.00
2017-11-08T10:00:52.400Z,95.80
2017-11-08T10:03:22.541Z,92.77
2017-11-08T10:05:52.839Z,95.83
2017-11-08T10:08:22.223Z,99.43
2017-11-08T10:10:51.650Z,95.53
2017-11-08T10:13:27.585Z,94.80
2017-11-08T10:15:57.989Z,92.03
2017-11-08T10:18:27.788Z,99.43
2017-11-08T10:20:57.226Z,97.63
2017-11-08T10:23:26.612Z,96.57
2017-11-08T10:25:56.451Z,96.20
2017-11-08T10:28:25.843Z,89.77
2017-11-08T10:30:55.227Z,84.87
2017-11-08T10:33:24.890Z,84.27
2017-11-08T10:35:55.101Z,95.63
2017-11-08T10:38:24.486Z,84.37
2017-11-08T10:40:54.569Z,88.70
2017-11-08T10:43:23.921Z,80.63
2017-11-08T10:45:53.316Z,85.40
2017-11-08T10:48:28.987Z,93.20
2017-11-08T10:50:58.955Z,82.97
2017-11-08T10:53:29.429Z,83.63
2017-11-08T10:55:58.815Z,78.03
2017-11-08T10:58:28.011Z,88.83
2017-11-08T11:00:59.185Z,75.27
2017-11-08T11:03:27.681Z,81.83
2017-11-08T11:05:58.264Z,78.30
2017-11-08T11:08:31.841Z,90.73
2017-11-08T11:11:01.072Z,81.17
2017-11-08T11:13:31.514Z,83.73
2017-11-08T11:16:00.492Z,84.03
2017-11-08T11:18:30.097Z,76.33
2017-11-08T11:20:59.203Z,78.43
2017-11-08T11:23:27.885Z,80.47
2017-11-08T11:25:56.921Z,81.57
2017-11-08T11:28:26.612Z,85.57
2017-11-08T11:30:55.302Z,79.53
2017-11-08T11:33:24.000Z,83.30
2017-11-08T11:35:53.700Z,85.37
2017-11-08T11:38:27.817Z,84.67
2017-11-08T11:40:56.642Z,79.70
2017-11-08T11:43:26.081Z,79.87
2017-11-08T11:45:55.154Z,83.80
2017-11-08T11:48:24.973Z,87.53
2017-11-08T11:50:58.615Z,80.53
2017-11-08T11:53:28.112Z,90.47
2017-11-08T11:55:57.142Z,87.13
2017-11-08T11:58:26.272Z,83.47
2017-11-08T12:00:55.710Z,78.30
2017-11-08T12:03:24.199Z,89.40
2017-11-08T12:05:52.499Z,85.60
2017-11-08T12:08:22.312Z,80.43
2017-11-08T12:10:50.794Z,82.73
2017-11-08T12:13:20.300Z,84.27
2017-11-08T12:15:49.376Z,79.90
2017-11-08T12:18:18.069Z,86.23
2017-11-08T12:20:46.749Z,72.47
2017-11-08T12:23:16.428Z,79.00
2017-11-08T12:25:45.108Z,84.00
2017-11-08T12:28:13.886Z,81.23
2017-11-08T12:30:42.964Z,81.13
2017-11-08T12:33:11.654Z,82.87
2017-11-08T12:35:41.107Z,77.20
2017-11-08T12:38:10.144Z,79.27
2017-11-08T12:40:38.833Z,77.93
2017-11-08T12:43:07.514Z,80.33
2017-11-08T12:45:37.079Z,73.53
2017-11-08T12:48:05.914Z,78.57
2017-11-08T12:50:34.607Z,76.27
2017-11-08T12:53:03.932Z,76.67
2017-11-08T12:55:32.624Z,84.47
2017-11-08T12:58:01.734Z,79.07
2017-11-08T13:00:31.921Z,81.97
2017-11-08T13:03:00.712Z,82.03
2017-11-08T13:05:29.827Z,82.67
2017-11-08T13:07:59.813Z,80.20
2017-11-08T13:10:29.287Z,73.87
2017-11-08T13:12:57.782Z,77.07
2017-11-08T13:15:28.197Z,80.17
2017-11-08T13:17:56.887Z,87.47
2017-11-08T13:20:26.042Z,86.53
2017-11-08T13:22:55.077Z,76.20
2017-11-08T13:25:23.762Z,86.67
2017-11-08T13:27:52.802Z,77.87
2017-11-08T13:30:22.002Z,94.27
2017-11-08T13:32:51.046Z,90.17
2017-11-08T13:35:20.088Z,87.03
2017-11-08T13:37:50.267Z,87.10
2017-11-08T13:40:18.758Z,91.80
2017-11-08T13:42:53.417Z,92.20
2017-11-08T13:45:22.955Z,97.73
2017-11-08T13:47:51.632Z,95.33
2017-11-08T13:50:21.416Z,101.43
2017-11-08T13:52:50.109Z,90.27
2017-11-08T13:55:18.793Z,98.87
2017-11-08T13:57:49.012Z,99.30
2017-11-08T14:00:20.674Z,97.67
2017-11-08T14:02:50.019Z,97.17
2017-11-08T14:05:18.721Z,98.47
2017-11-08T14:07:47.901Z,93.50
2017-11-08T14:10:17.612Z,100.40
2017-11-08T14:12:47.761Z,99.43
2017-11-08T14:15:18.877Z,101.97
2017-11-08T14:17:48.413Z,94.43
2017-11-08T14:20:17.805Z,103.60
2017-11-08T14:22:47.556Z,94.50
2017-11-08T14:25:16.741Z,92.60
2017-11-08T14:27:47.220Z,97.43
2017-11-08T14:30:16.425Z,109.60
2017-11-08T14:32:46.582Z,107.87
2017-11-08T14:35:16.664Z,106.10
2017-11-08T14:37:46.033Z,104.60
2017-11-08T14:40:16.829Z,109.33
2017-11-08T14:42:55.189Z,116.00
2017-11-08T14:45:24.906Z,104.93
2017-11-08T14:47:54.319Z,112.30
2017-11-08T14:50:24.561Z,117.90
2017-11-08T14:52:57.927Z,103.43
2017-11-08T14:55:28.016Z,110.20
2017-11-08T14:57:57.424Z,107.60
2017-11-08T15:00:26.818Z,114.53
2017-11-08T15:02:56.307Z,112.30
2017-11-08T15:05:26.899Z,115.50
2017-11-08T15:07:56.297Z,112.20
2017-11-08T15:10:25.713Z,115.63
2017-11-08T15:12:56.304Z,115.90
2017-11-08T15:15:25.705Z,112.97
2017-11-08T15:17:57.265Z,120.33
2017-11-08T15:20:29.223Z,114.20
2017-11-08T15:22:59.264Z,111.27
2017-11-08T15:25:29.726Z,120.70
2017-11-08T15:28:00.751Z,118.30
2017-11-08T15:30:30.146Z,127.33
2017-11-08T15:33:00.715Z,113.60
2017-11-08T15:35:30.868Z,118.30
2017-11-08T15:38:00.574Z,117.03
2017-11-08T15:40:29.773Z,107.00
2017-11-08T15:42:59.183Z,114.50
2017-11-08T15:45:28.230Z,120.27
2017-11-08T15:47:57.616Z,115.27
2017-11-08T15:50:27.017Z,124.27
2017-11-08T15:52:56.821Z,123.63
2017-11-08T15:55:26.199Z,119.77
2017-11-08T15:57:55.604Z,117.17
2017-11-08T16:00:25.393Z,120.00
2017-11-08T16:02:54.599Z,130.40
2017-11-08T16:05:23.967Z,120.20
2017-11-08T16:07:54.379Z,121.77
2017-11-08T16:10:23.749Z,124.33
2017-11-08T16:12:56.133Z,122.73
2017-11-08T16:15:25.578Z,121.20
2017-11-08T16:17:55.230Z,117.07
2017-11-08T16:20:26.378Z,125.70
2017-11-08T16:22:56.514Z,121.53
2017-11-08T16:25:26.526Z,123.17
2017-11-08T16:27:55.894Z,122.47
2017-11-08T16:30:26.627Z,121.13
2017-11-08T16:32:57.527Z,126.53
2017-11-08T16:35:27.301Z,116.20
2017-11-08T16:37:56.508Z,125.67
2017-11-08T16:40:25.899Z,114.60
2017-11-08T16:42:57.302Z,121.30
2017-11-08T16:45:26.716Z,112.47
2017-11-08T16:47:57.337Z,119.97
2017-11-08T16:50:26.732Z,107.13
2017-11-08T16:52:55.953Z,110.23
2017-11-08T16:55:25.942Z,105.63
2017-11-08T16:57:57.550Z,99.47
2017-11-08T17:00:27.111Z,96.37
2017-11-08T17:02:57.442Z,92.73
2017-11-08T17:05:27.618Z,101.50
2017-11-08T17:07:56.998Z,89.50
2017-11-08T17:10:26.416Z,96.87
2017-11-08T17:12:58.388Z,92.67
2017-11-08T17:15:27.794Z,96.03
2017-11-08T17:17:57.303Z,93.83
2017-11-08T17:20:27.756Z,90.33
2017-11-08T17:22:57.140Z,91.07
2017-11-08T17:25:29.397Z,95.57
2017-11-08T17:27:58.821Z,97.57
2017-11-08T17:30:28.396Z,92.90
2017-11-08T17:32:59.189Z,87.23
2017-11-08T17:35:28.566Z,96.23
2017-11-08T17:37:57.954Z,85.73
2017-11-08T17:40:28.126Z,90.80
2017-11-08T17:42:57.543Z,113.43
2017-11-08T17:45:26.933Z,89.20
2017-11-08T17:47:56.576Z,99.53
2017-11-08T17:50:26.029Z,91.57
2017-11-08T17:52:58.017Z,101.27
2017-11-08T17:55:27.438Z,102.17
2017-11-08T17:57:56.825Z,101.60
2017-11-08T18:00:26.576Z,104.00
2017-11-08T18:02:55.957Z,96.90
2017-11-08T18:05:26.266Z,98.20
2017-11-08T18:07:55.697Z,103.63
2017-11-08T18:10:25.125Z,97.07
2017-11-08T18:12:54.642Z,98.50
2017-11-08T18:15:24.033Z,96.37
2017-11-08T18:17:53.397Z,93.10
2017-11-08T18:20:23.552Z,95.07
2017-11-08T18:22:53.121Z,95.00
2017-11-08T18:25:22.549Z,95.13
2017-11-08T18:27:52.392Z,99.23
2017-11-08T18:30:22.558Z,95.07
2017-11-08T18:32:53.032Z,93.10
2017-11-08T18:35:22.428Z,90.30
2017-11-08T18:37:52.103Z,97.80
2017-11-08T18:40:21.831Z,99.67
2017-11-08T18:42:51.248Z,99.70
2017-11-08T18:45:20.617Z,99.80
2017-11-08T18:47:50.292Z,102.17
2017-11-08T18:50:19.670Z,97.60
2017-11-08T18:52:49.067Z,95.67
2017-11-08T18:55:18.597Z,103.40
2017-11-08T18:57:47.991Z,101.00
2017-11-08T19:00:18.559Z,114.70
2017-11-08T19:02:47.766Z,94.80
2017-11-08T19:05:17.397Z,91.57
2017-11-08T19:07:48.282Z,95.73
2017-11-08T19:10:17.659Z,94.00
2017-11-08T19:12:48.680Z,99.87
2017-11-08T19:15:18.078Z,91.23
2017-11-08T19:17:47.274Z,97.73
2017-11-08T19:20:16.998Z,104.27
2017-11-08T19:22:47.378Z,89.50
2017-11-08T19:25:16.799Z,103.20
2017-11-08T19:27:46.798Z,119.00
2017-11-08T19:30:16.204Z,107.33
2017-11-08T19:32:46.769Z,107.73
2017-11-08T19:35:16.153Z,112.77
2017-11-08T19:37:46.616Z,107.83
2017-11-08T19:40:16.769Z,106.27
2017-11-08T19:42:47.046Z,110.20
2017-11-08T19:45:16.447Z,118.03
2017-11-08T19:47:46.738Z,109.13
2017-11-08T19:50:16.708Z,126.60
2017-11-08T19:52:46.087Z,109.77
2017-11-08T19:55:15.481Z,124.03
2017-11-08T19:57:45.982Z,107.53
2017-11-08T20:00:15.380Z,126.30
2017-11-08T20:02:44.756Z,120.30
2017-11-08T20:05:14.449Z,117.97
2017-11-08T20:07:43.659Z,135.53
2017-11-08T20:10:12.864Z,116.93
2017-11-08T20:12:43.616Z,117.97
2017-11-08T20:15:13.018Z,130.90
2017-11-08T20:17:42.435Z,127.13
2017-11-08T20:20:12.147Z,134.17
2017-11-08T20:22:41.541Z,119.53
2017-11-08T20:25:10.930Z,124.80
2017-11-08T20:27:40.634Z,132.17
2017-11-08T20:30:10.013Z,126.20
2017-11-08T20:32:39.404Z,131.43
2017-11-08T20:35:09.429Z,133.20
2017-11-08T20:37:38.818Z,134.77
2017-11-08T20:40:09.628Z,131.33
2017-11-08T20:42:39.020Z,137.63
2017-11-08T20:45:09.605Z,154.47
2017-11-08T20:47:38.987Z,135.50
2017-11-08T20:50:09.482Z,136.37
2017-11-08T20:52:38.873Z,145.80
2017-11-08T20:55:09.780Z,149.20
2017-11-08T20:57:39.007Z,161.00
2017-11-08T21:00:08.028Z,155.07
2017-11-08T21:02:38.038Z,168.00
2017-11-08T21:05:07.410Z,161.80
2017-11-08T21:07:36.799Z,158.63
2017-11-08T21:10:06.334Z,165.17
2017-11-08T21:12:35.719Z,179.97
2017-11-08T21:15:06.217Z,165.83
2017-11-08T21:17:35.644Z,185.17
2017-11-08T21:20:04.677Z,179.83
2017-11-08T21:22:35.541Z,160.10
2017-11-08T21:25:05.304Z,156.63
2017-11-08T21:27:34.710Z,169.87
2017-11-08T21:30:04.435Z,162.87
2017-11-08T21:32:33.638Z,179.13
2017-11-08T21:35:03.281Z,168.20
2017-11-08T21:37:33.038Z,174.93
2017-11-08T21:40:02.450Z,150.77
2017-11-08T21:42:31.924Z,176.37
2017-11-08T21:45:02.255Z,173.70
2017-11-08T21:47:31.663Z,154.40
2017-11-08T21:50:01.050Z,163.30
2017-11-08T21:52:31.530Z,157.30
2017-11-08T21:55:00.931Z,169.30
2017-11-08T21:57:31.410Z,134.70
2017-11-08T22:00:01.874Z,185.23
2017-11-08T22:02:31.720Z,154.40
2017-11-08T22:05:02.205Z,136.93
2017-11-08T22:07:33.024Z,143.17
2017-11-08T22:10:02.606Z,146.67
2017-11-08T22:12:32.038Z,158.10
2017-11-08T22:15:01.817Z,155.03
2017-11-08T22:17:31.204Z,150.57
2017-11-08T22:20:01.414Z,147.07
2017-11-08T22:22:30.820Z,163.47
2017-11-08T22:25:00.226Z,150.97
2017-11-08T22:27:30.997Z,146.10
2017-11-08T22:30:00.384Z,132.77
2017-11-08T22:32:29.471Z,148.40
2017-11-08T22:34:59.514Z,151.93
2017-11-08T22:37:28.910Z,147.93
2017-11-08T22:39:59.417Z,153.20
2017-11-08T22:42:28.819Z,144.77
2017-11-08T22:44:57.526Z,142.50
2017-11-08T22:47:27.236Z,139.47
2017-11-08T22:49:57.429Z,148.97
2017-11-08T22:52:28.184Z,146.90
2017-11-08T22:54:57.569Z,141.60
2017-11-08T22:57:26.966Z,137.97
2017-11-08T22:59:56.993Z,143.93
2017-11-08T23:02:26.410Z,150.53
2017-11-08T23:04:55.793Z,152.73
2017-11-08T23:07:25.657Z,151.43
2017-11-08T23:09:59.459Z,141.77
2017-11-08T23:12:33.323Z,150.97
2017-11-08T23:15:02.881Z,150.87
2017-11-08T23:17:32.282Z,151.57
2017-11-08T23:20:02.448Z,152.27
2017-11-08T23:22:31.848Z,145.87
2017-11-08T23:25:01.338Z,149.30
2017-11-08T23:27:31.066Z,159.50
2017-11-08T23:30:00.276Z,139.10
2017-11-08T23:32:29.769Z,145.97
2017-11-08T23:34:59.551Z,139.90
2017-11-08T23:37:28.949Z,137.17
2017-11-08T23:39:58.538Z,144.80
2017-11-08T23:42:28.328Z,138.20
2017-11-08T23:44:57.722Z,147.20
2017-11-08T23:47:27.151Z,158.83
2017-11-08T23:49:58.676Z,138.47
2017-11-08T23:52:28.095Z,134.63
2017-11-08T23:54:57.477Z,139.53
2017-11-08T23:57:27.275Z,154.90
